Startpagina
METAR-TAF:

METAR-TAF

Vliegvelden :

Auckland, Nieuw-Zeeland

Luchthaven van Auckland

breedte: 37-01S, lengte: 174-48E, hoogte: 7 m

Actueel weer

Dit bericht is 39 minuten geleden gemaakt, om 00:00 UTC
Wind 12 kt uit het zuidwesten, variërend tussen het zuiden en het westen
Temperatuur 14°C
Vochtigheid 72%
Druk 1012 hPa
Zicht 10 km of meer

METAR: NZAA 260000Z AUTO 23012KT 190V260 9999 FEW031/// SCT065/// 14/09 Q1012 NOSIG

Tijdstip: 12:39 (00:39 UTC)

Verwachting

Dit bericht is 1 uur en het 31 minuten geleden gemaakt, om 23:08 UTC
Verwachting geldig van 26 om 00 UTC tot 27 om 00 UTC
Wind 10 kt uit het zuidwesten
Zicht 10 km of meer
Weinig wolken op 4000 ft
Wijzigt naar
van 26 om 06 UTC tot 26 om 08 UTC
Wind 8 kt uit het noordwesten

TAF: NZAA 252308Z 2600/2700 22010KT 9999 FEW040 BECMG 2606/2608 32008KT

Waarnemingen en weersverwachtingen van meer dan 4000 vliegvelden (METAR en TAF).

De beschikbare stations zijn de gele en rode punten op de kaart.

Ga met uw muis naar het station om de naam te zien.

Klik dan om waarnemingen en weersverwachtingen te zien.

kaart wijzigen: klik op de groene knoppen met een zwart kruis om in te zoomen, op de groene knop met een streepje om uit te zoomen of op de groene pijlen voor aangrenzende kaarten.


METAR-TAF: